sensor_id;sensor_type;location;lat;lon;timestamp;temperature;humidity
39751;DHT22;37579;51.074;17.004;2023-12-20T00:01:32;24.00;57.10
39751;DHT22;37579;51.074;17.004;2023-12-20T00:03:58;24.00;57.10
39751;DHT22;37579;51.074;17.004;2023-12-20T00:06:24;24.00;57.10
39751;DHT22;37579;51.074;17.004;2023-12-20T00:08:49;24.00;57.10
39751;DHT22;37579;51.074;17.004;2023-12-20T00:11:15;24.00;57.10
39751;DHT22;37579;51.074;17.004;2023-12-20T00:13:41;24.00;57.00
39751;DHT22;37579;51.074;17.004;2023-12-20T00:16:06;24.00;57.10
39751;DHT22;37579;51.074;17.004;2023-12-20T00:18:32;24.00;57.10
39751;DHT22;37579;51.074;17.004;2023-12-20T00:20:58;23.90;57.70
39751;DHT22;37579;51.074;17.004;2023-12-20T00:23:24;24.00;57.40
39751;DHT22;37579;51.074;17.004;2023-12-20T00:25:49;23.90;57.10
39751;DHT22;37579;51.074;17.004;2023-12-20T00:28:15;23.90;57.20
39751;DHT22;37579;51.074;17.004;2023-12-20T00:30:41;23.90;57.20
39751;DHT22;37579;51.074;17.004;2023-12-20T00:33:07;23.90;57.20
39751;DHT22;37579;51.074;17.004;2023-12-20T00:35:32;23.90;57.10
39751;DHT22;37579;51.074;17.004;2023-12-20T00:37:59;23.90;57.10
39751;DHT22;37579;51.074;17.004;2023-12-20T00:40:25;23.90;57.20
39751;DHT22;37579;51.074;17.004;2023-12-20T00:42:50;23.90;57.20
39751;DHT22;37579;51.074;17.004;2023-12-20T00:45:16;23.90;57.20
39751;DHT22;37579;51.074;17.004;2023-12-20T00:47:42;23.90;57.30
39751;DHT22;37579;51.074;17.004;2023-12-20T00:50:08;23.90;57.20
39751;DHT22;37579;51.074;17.004;2023-12-20T00:52:34;23.90;57.20
39751;DHT22;37579;51.074;17.004;2023-12-20T00:55:00;23.90;57.20
39751;DHT22;37579;51.074;17.004;2023-12-20T00:57:26;23.90;57.30
39751;DHT22;37579;51.074;17.004;2023-12-20T00:59:52;23.90;57.20
39751;DHT22;37579;51.074;17.004;2023-12-20T01:02:17;24.00;57.20
39751;DHT22;37579;51.074;17.004;2023-12-20T01:04:43;24.10;57.10
39751;DHT22;37579;51.074;17.004;2023-12-20T01:07:09;24.10;57.10
39751;DHT22;37579;51.074;17.004;2023-12-20T01:09:34;24.10;57.00
39751;DHT22;37579;51.074;17.004;2023-12-20T01:12:00;24.10;56.90
39751;DHT22;37579;51.074;17.004;2023-12-20T01:14:26;24.10;56.90
39751;DHT22;37579;51.074;17.004;2023-12-20T01:16:52;24.10;56.80
39751;DHT22;37579;51.074;17.004;2023-12-20T01:19:17;24.10;56.80
39751;DHT22;37579;51.074;17.004;2023-12-20T01:21:43;24.20;56.90
39751;DHT22;37579;51.074;17.004;2023-12-20T01:24:09;24.20;56.80
39751;DHT22;37579;51.074;17.004;2023-12-20T01:26:35;24.10;56.90
39751;DHT22;37579;51.074;17.004;2023-12-20T01:29:00;24.10;56.80
39751;DHT22;37579;51.074;17.004;2023-12-20T01:31:27;24.10;56.80
39751;DHT22;37579;51.074;17.004;2023-12-20T01:33:53;24.10;56.80
39751;DHT22;37579;51.074;17.004;2023-12-20T01:36:18;24.10;56.80
39751;DHT22;37579;51.074;17.004;2023-12-20T01:38:45;24.10;56.90
39751;DHT22;37579;51.074;17.004;2023-12-20T01:41:11;24.10;56.90
39751;DHT22;37579;51.074;17.004;2023-12-20T01:43:36;24.10;57.00
39751;DHT22;37579;51.074;17.004;2023-12-20T01:46:02;24.10;56.90
39751;DHT22;37579;51.074;17.004;2023-12-20T01:48:29;24.10;57.00
39751;DHT22;37579;51.074;17.004;2023-12-20T01:50:57;24.00;56.90
39751;DHT22;37579;51.074;17.004;2023-12-20T01:53:24;24.00;56.90
39751;DHT22;37579;51.074;17.004;2023-12-20T01:55:52;24.00;57.00
39751;DHT22;37579;51.074;17.004;2023-12-20T01:58:20;24.00;57.00
39751;DHT22;37579;51.074;17.004;2023-12-20T02:00:46;24.00;57.00
39751;DHT22;37579;51.074;17.004;2023-12-20T02:03:12;24.00;57.00
39751;DHT22;37579;51.074;17.004;2023-12-20T02:05:38;24.00;57.00
39751;DHT22;37579;51.074;17.004;2023-12-20T02:08:04;24.00;57.00
39751;DHT22;37579;51.074;17.004;2023-12-20T02:10:31;23.90;57.00
39751;DHT22;37579;51.074;17.004;2023-12-20T02:12:57;23.90;57.00
39751;DHT22;37579;51.074;17.004;2023-12-20T02:15:24;24.00;57.10
39751;DHT22;37579;51.074;17.004;2023-12-20T02:17:50;23.90;57.00
39751;DHT22;37579;51.074;17.004;2023-12-20T02:20:16;23.90;57.00
39751;DHT22;37579;51.074;17.004;2023-12-20T02:22:42;24.00;57.10
39751;DHT22;37579;51.074;17.004;2023-12-20T02:25:08;24.00;57.00
39751;DHT22;37579;51.074;17.004;2023-12-20T02:27:34;24.00;56.90
39751;DHT22;37579;51.074;17.004;2023-12-20T02:30:00;24.00;56.90
39751;DHT22;37579;51.074;17.004;2023-12-20T02:32:26;24.00;56.80
39751;DHT22;37579;51.074;17.004;2023-12-20T02:34:55;24.00;56.90
39751;DHT22;37579;51.074;17.004;2023-12-20T02:37:21;24.00;56.90
39751;DHT22;37579;51.074;17.004;2023-12-20T02:39:47;24.00;56.90
39751;DHT22;37579;51.074;17.004;2023-12-20T02:42:12;24.00;56.90
39751;DHT22;37579;51.074;17.004;2023-12-20T02:44:38;24.00;56.90
39751;DHT22;37579;51.074;17.004;2023-12-20T02:47:04;24.00;56.90
39751;DHT22;37579;51.074;17.004;2023-12-20T02:49:30;24.00;56.80
39751;DHT22;37579;51.074;17.004;2023-12-20T02:51:56;24.00;56.90
39751;DHT22;37579;51.074;17.004;2023-12-20T02:54:21;24.00;56.80
39751;DHT22;37579;51.074;17.004;2023-12-20T02:56:48;24.00;56.80
39751;DHT22;37579;51.074;17.004;2023-12-20T02:59:13;24.00;56.70
39751;DHT22;37579;51.074;17.004;2023-12-20T03:01:44;24.00;56.70
39751;DHT22;37579;51.074;17.004;2023-12-20T03:04:10;24.00;56.60
39751;DHT22;37579;51.074;17.004;2023-12-20T03:06:36;24.10;56.60
39751;DHT22;37579;51.074;17.004;2023-12-20T03:09:02;24.00;56.50
39751;DHT22;37579;51.074;17.004;2023-12-20T03:11:27;24.00;56.60
39751;DHT22;37579;51.074;17.004;2023-12-20T03:13:54;24.00;56.50
39751;DHT22;37579;51.074;17.004;2023-12-20T03:16:20;24.00;56.50
39751;DHT22;37579;51.074;17.004;2023-12-20T03:18:46;24.00;56.50
39751;DHT22;37579;51.074;17.004;2023-12-20T03:21:11;24.00;56.60
39751;DHT22;37579;51.074;17.004;2023-12-20T03:23:37;24.00;56.60
39751;DHT22;37579;51.074;17.004;2023-12-20T03:26:05;24.00;56.60
39751;DHT22;37579;51.074;17.004;2023-12-20T03:28:32;24.00;56.60
39751;DHT22;37579;51.074;17.004;2023-12-20T03:30:57;24.00;56.60
39751;DHT22;37579;51.074;17.004;2023-12-20T03:33:23;24.00;56.50
39751;DHT22;37579;51.074;17.004;2023-12-20T03:35:49;24.00;56.60
39751;DHT22;37579;51.074;17.004;2023-12-20T03:38:15;24.00;56.60
39751;DHT22;37579;51.074;17.004;2023-12-20T03:40:40;24.00;57.10
39751;DHT22;37579;51.074;17.004;2023-12-20T03:43:06;24.00;56.40
39751;DHT22;37579;51.074;17.004;2023-12-20T03:45:32;24.00;56.40
39751;DHT22;37579;51.074;17.004;2023-12-20T03:47:57;24.00;56.40
39751;DHT22;37579;51.074;17.004;2023-12-20T03:50:23;23.90;56.40
39751;DHT22;37579;51.074;17.004;2023-12-20T03:52:49;23.90;56.50
39751;DHT22;37579;51.074;17.004;2023-12-20T03:55:15;23.90;56.50
39751;DHT22;37579;51.074;17.004;2023-12-20T03:57:41;23.90;56.60
39751;DHT22;37579;51.074;17.004;2023-12-20T04:00:10;23.90;56.50
39751;DHT22;37579;51.074;17.004;2023-12-20T04:02:42;23.90;56.60
39751;DHT22;37579;51.074;17.004;2023-12-20T04:05:09;23.90;56.50
39751;DHT22;37579;51.074;17.004;2023-12-20T04:07:35;23.90;56.50
39751;DHT22;37579;51.074;17.004;2023-12-20T04:10:02;23.90;56.50
39751;DHT22;37579;51.074;17.004;2023-12-20T04:12:29;23.90;56.50
39751;DHT22;37579;51.074;17.004;2023-12-20T04:14:55;23.90;56.50
39751;DHT22;37579;51.074;17.004;2023-12-20T04:17:21;23.90;56.60
39751;DHT22;37579;51.074;17.004;2023-12-20T04:19:49;23.80;56.60
39751;DHT22;37579;51.074;17.004;2023-12-20T04:22:15;23.90;56.80
39751;DHT22;37579;51.074;17.004;2023-12-20T04:24:41;23.90;56.80
39751;DHT22;37579;51.074;17.004;2023-12-20T04:27:09;23.90;56.70
39751;DHT22;37579;51.074;17.004;2023-12-20T04:29:35;24.00;56.60
39751;DHT22;37579;51.074;17.004;2023-12-20T04:32:01;24.00;56.60
39751;DHT22;37579;51.074;17.004;2023-12-20T04:34:27;24.00;56.50
39751;DHT22;37579;51.074;17.004;2023-12-20T04:36:53;24.00;56.40
39751;DHT22;37579;51.074;17.004;2023-12-20T04:39:18;24.00;56.40
39751;DHT22;37579;51.074;17.004;2023-12-20T04:41:44;24.10;56.40
39751;DHT22;37579;51.074;17.004;2023-12-20T04:44:10;24.10;56.30
39751;DHT22;37579;51.074;17.004;2023-12-20T04:46:36;24.00;56.20
39751;DHT22;37579;51.074;17.004;2023-12-20T04:49:02;24.10;56.20
39751;DHT22;37579;51.074;17.004;2023-12-20T04:51:27;24.10;56.20
39751;DHT22;37579;51.074;17.004;2023-12-20T04:53:53;24.00;56.20
39751;DHT22;37579;51.074;17.004;2023-12-20T04:56:19;24.00;56.20
39751;DHT22;37579;51.074;17.004;2023-12-20T04:58:45;24.00;56.20
39751;DHT22;37579;51.074;17.004;2023-12-20T05:01:11;24.00;56.20
39751;DHT22;37579;51.074;17.004;2023-12-20T05:03:37;24.00;56.20
39751;DHT22;37579;51.074;17.004;2023-12-20T05:06:03;24.00;56.10
39751;DHT22;37579;51.074;17.004;2023-12-20T05:08:29;24.00;56.10
39751;DHT22;37579;51.074;17.004;2023-12-20T05:10:55;24.00;56.10
39751;DHT22;37579;51.074;17.004;2023-12-20T05:13:21;24.00;56.10
39751;DHT22;37579;51.074;17.004;2023-12-20T05:15:47;23.90;56.10
39751;DHT22;37579;51.074;17.004;2023-12-20T05:18:13;23.90;56.10
39751;DHT22;37579;51.074;17.004;2023-12-20T05:20:39;23.90;56.20
39751;DHT22;37579;51.074;17.004;2023-12-20T05:23:05;23.90;56.30
39751;DHT22;37579;51.074;17.004;2023-12-20T05:25:31;23.90;56.20
39751;DHT22;37579;51.074;17.004;2023-12-20T05:27:57;23.90;56.30
39751;DHT22;37579;51.074;17.004;2023-12-20T05:30:23;23.90;56.30
39751;DHT22;37579;51.074;17.004;2023-12-20T05:32:49;23.80;56.20
39751;DHT22;37579;51.074;17.004;2023-12-20T05:35:15;23.90;56.20
39751;DHT22;37579;51.074;17.004;2023-12-20T05:37:41;23.90;56.30
39751;DHT22;37579;51.074;17.004;2023-12-20T05:40:07;23.90;56.20
39751;DHT22;37579;51.074;17.004;2023-12-20T05:42:37;23.80;56.20
39751;DHT22;37579;51.074;17.004;2023-12-20T05:45:04;23.90;56.20
39751;DHT22;37579;51.074;17.004;2023-12-20T05:47:29;23.80;56.10
39751;DHT22;37579;51.074;17.004;2023-12-20T05:49:55;23.90;56.20
39751;DHT22;37579;51.074;17.004;2023-12-20T05:52:21;23.80;56.10
39751;DHT22;37579;51.074;17.004;2023-12-20T05:54:47;23.90;56.20
39751;DHT22;37579;51.074;17.004;2023-12-20T05:57:13;23.90;56.20
39751;DHT22;37579;51.074;17.004;2023-12-20T05:59:39;23.80;56.20
39751;DHT22;37579;51.074;17.004;2023-12-20T06:02:05;23.90;56.20
39751;DHT22;37579;51.074;17.004;2023-12-20T06:04:31;23.90;56.20
39751;DHT22;37579;51.074;17.004;2023-12-20T06:06:57;23.80;56.20
39751;DHT22;37579;51.074;17.004;2023-12-20T06:09:23;23.80;56.20
39751;DHT22;37579;51.074;17.004;2023-12-20T06:11:49;23.80;56.20
39751;DHT22;37579;51.074;17.004;2023-12-20T06:14:16;23.80;56.30
39751;DHT22;37579;51.074;17.004;2023-12-20T06:16:42;23.80;56.40
39751;DHT22;37579;51.074;17.004;2023-12-20T06:19:08;23.90;56.40
39751;DHT22;37579;51.074;17.004;2023-12-20T06:21:34;23.90;56.30
39751;DHT22;37579;51.074;17.004;2023-12-20T06:24:00;23.90;56.30
39751;DHT22;37579;51.074;17.004;2023-12-20T06:26:26;23.90;56.30
39751;DHT22;37579;51.074;17.004;2023-12-20T06:28:51;23.90;56.20
39751;DHT22;37579;51.074;17.004;2023-12-20T06:31:17;23.90;56.20
39751;DHT22;37579;51.074;17.004;2023-12-20T06:33:43;23.90;56.30
39751;DHT22;37579;51.074;17.004;2023-12-20T06:36:12;23.90;56.30
39751;DHT22;37579;51.074;17.004;2023-12-20T06:38:39;23.90;56.30
39751;DHT22;37579;51.074;17.004;2023-12-20T06:41:05;23.90;56.30
39751;DHT22;37579;51.074;17.004;2023-12-20T06:43:31;23.90;56.30
39751;DHT22;37579;51.074;17.004;2023-12-20T06:45:58;23.90;56.30
39751;DHT22;37579;51.074;17.004;2023-12-20T06:48:24;23.90;56.30
39751;DHT22;37579;51.074;17.004;2023-12-20T06:50:49;23.80;56.20
39751;DHT22;37579;51.074;17.004;2023-12-20T06:53:15;23.80;56.20
39751;DHT22;37579;51.074;17.004;2023-12-20T06:55:42;23.90;56.30
39751;DHT22;37579;51.074;17.004;2023-12-20T06:58:08;23.90;56.30
39751;DHT22;37579;51.074;17.004;2023-12-20T07:00:34;23.90;56.20
39751;DHT22;37579;51.074;17.004;2023-12-20T07:03:00;23.90;56.20
39751;DHT22;37579;51.074;17.004;2023-12-20T07:05:25;23.90;56.10
39751;DHT22;37579;51.074;17.004;2023-12-20T07:07:52;23.90;56.10
39751;DHT22;37579;51.074;17.004;2023-12-20T07:10:18;23.80;56.10
39751;DHT22;37579;51.074;17.004;2023-12-20T07:12:44;23.90;56.10
39751;DHT22;37579;51.074;17.004;2023-12-20T07:15:09;23.80;56.10
39751;DHT22;37579;51.074;17.004;2023-12-20T07:17:35;23.80;56.10
39751;DHT22;37579;51.074;17.004;2023-12-20T07:20:01;23.80;56.10
39751;DHT22;37579;51.074;17.004;2023-12-20T07:22:32;23.80;56.20
39751;DHT22;37579;51.074;17.004;2023-12-20T07:24:59;23.80;56.10
39751;DHT22;37579;51.074;17.004;2023-12-20T07:27:25;23.80;56.10
39751;DHT22;37579;51.074;17.004;2023-12-20T07:29:51;23.80;56.20
39751;DHT22;37579;51.074;17.004;2023-12-20T07:32:17;23.80;56.10
39751;DHT22;37579;51.074;17.004;2023-12-20T07:34:43;23.80;56.10
39751;DHT22;37579;51.074;17.004;2023-12-20T07:37:09;23.80;56.20
39751;DHT22;37579;51.074;17.004;2023-12-20T07:39:41;23.80;56.20
39751;DHT22;37579;51.074;17.004;2023-12-20T07:42:08;23.80;56.10
39751;DHT22;37579;51.074;17.004;2023-12-20T07:44:34;23.80;56.20
39751;DHT22;37579;51.074;17.004;2023-12-20T07:47:01;23.80;56.20
39751;DHT22;37579;51.074;17.004;2023-12-20T07:49:27;23.80;56.20
39751;DHT22;37579;51.074;17.004;2023-12-20T07:51:53;23.80;56.20
39751;DHT22;37579;51.074;17.004;2023-12-20T07:54:19;23.80;56.20
39751;DHT22;37579;51.074;17.004;2023-12-20T07:56:46;23.80;56.20
39751;DHT22;37579;51.074;17.004;2023-12-20T07:59:12;23.80;56.30
39751;DHT22;37579;51.074;17.004;2023-12-20T08:01:38;23.80;56.40
39751;DHT22;37579;51.074;17.004;2023-12-20T08:04:04;23.80;56.30
39751;DHT22;37579;51.074;17.004;2023-12-20T08:06:29;23.90;56.30
39751;DHT22;37579;51.074;17.004;2023-12-20T08:08:55;23.90;56.30
39751;DHT22;37579;51.074;17.004;2023-12-20T08:11:21;23.90;56.30
39751;DHT22;37579;51.074;17.004;2023-12-20T08:13:47;23.90;56.20
39751;DHT22;37579;51.074;17.004;2023-12-20T08:16:12;23.90;56.20
39751;DHT22;37579;51.074;17.004;2023-12-20T08:18:39;23.90;56.20
39751;DHT22;37579;51.074;17.004;2023-12-20T08:21:05;23.90;56.20
39751;DHT22;37579;51.074;17.004;2023-12-20T08:23:33;23.90;56.20
39751;DHT22;37579;51.074;17.004;2023-12-20T08:26:04;23.90;56.80
39751;DHT22;37579;51.074;17.004;2023-12-20T08:28:30;23.90;56.20
39751;DHT22;37579;51.074;17.004;2023-12-20T08:30:56;23.90;56.20
39751;DHT22;37579;51.074;17.004;2023-12-20T08:33:22;23.90;56.20
39751;DHT22;37579;51.074;17.004;2023-12-20T08:35:48;23.90;56.20
39751;DHT22;37579;51.074;17.004;2023-12-20T08:38:14;23.90;56.90
39751;DHT22;37579;51.074;17.004;2023-12-20T08:40:40;23.90;56.20
39751;DHT22;37579;51.074;17.004;2023-12-20T08:43:05;23.90;56.20
39751;DHT22;37579;51.074;17.004;2023-12-20T08:45:31;23.90;56.30
39751;DHT22;37579;51.074;17.004;2023-12-20T08:47:57;23.80;56.20
39751;DHT22;37579;51.074;17.004;2023-12-20T08:50:22;23.80;56.30
39751;DHT22;37579;51.074;17.004;2023-12-20T08:52:48;23.80;56.30
39751;DHT22;37579;51.074;17.004;2023-12-20T08:55:14;23.80;56.40
39751;DHT22;37579;51.074;17.004;2023-12-20T08:57:41;23.90;56.50
39751;DHT22;37579;51.074;17.004;2023-12-20T09:00:08;23.80;56.40
39751;DHT22;37579;51.074;17.004;2023-12-20T09:02:34;23.90;56.50
39751;DHT22;37579;51.074;17.004;2023-12-20T09:05:02;23.80;56.50
39751;DHT22;37579;51.074;17.004;2023-12-20T09:07:27;23.90;56.70
39751;DHT22;37579;51.074;17.004;2023-12-20T09:09:56;23.90;56.80
39751;DHT22;37579;51.074;17.004;2023-12-20T09:12:22;24.00;56.70
39751;DHT22;37579;51.074;17.004;2023-12-20T09:14:49;24.00;56.60
39751;DHT22;37579;51.074;17.004;2023-12-20T09:17:15;24.00;56.60
39751;DHT22;37579;51.074;17.004;2023-12-20T09:19:42;24.10;56.50
39751;DHT22;37579;51.074;17.004;2023-12-20T09:22:09;24.10;56.30
39751;DHT22;37579;51.074;17.004;2023-12-20T09:24:35;24.10;56.30
39751;DHT22;37579;51.074;17.004;2023-12-20T09:27:01;24.10;56.30
39751;DHT22;37579;51.074;17.004;2023-12-20T09:29:26;24.20;56.40
39751;DHT22;37579;51.074;17.004;2023-12-20T09:31:52;24.10;56.40
39751;DHT22;37579;51.074;17.004;2023-12-20T09:34:18;24.20;56.20
39751;DHT22;37579;51.074;17.004;2023-12-20T09:36:44;24.20;56.20
39751;DHT22;37579;51.074;17.004;2023-12-20T09:39:13;24.10;56.00
39751;DHT22;37579;51.074;17.004;2023-12-20T09:41:43;24.10;56.00
39751;DHT22;37579;51.074;17.004;2023-12-20T09:44:15;24.10;56.20
39751;DHT22;37579;51.074;17.004;2023-12-20T09:46:45;24.20;56.70
39751;DHT22;37579;51.074;17.004;2023-12-20T09:49:12;24.20;56.60
39751;DHT22;37579;51.074;17.004;2023-12-20T09:51:39;24.20;56.60
39751;DHT22;37579;51.074;17.004;2023-12-20T09:54:06;24.20;56.60
39751;DHT22;37579;51.074;17.004;2023-12-20T09:56:31;24.20;56.70
39751;DHT22;37579;51.074;17.004;2023-12-20T09:58:57;24.10;56.70
39751;DHT22;37579;51.074;17.004;2023-12-20T10:01:25;24.10;57.20
39751;DHT22;37579;51.074;17.004;2023-12-20T10:03:51;24.10;57.70
39751;DHT22;37579;51.074;17.004;2023-12-20T10:06:19;24.10;57.90
39751;DHT22;37579;51.074;17.004;2023-12-20T10:08:45;24.20;57.90
39751;DHT22;37579;51.074;17.004;2023-12-20T10:11:11;24.20;57.70
39751;DHT22;37579;51.074;17.004;2023-12-20T10:13:40;24.30;57.50
39751;DHT22;37579;51.074;17.004;2023-12-20T10:16:06;24.30;57.40
39751;DHT22;37579;51.074;17.004;2023-12-20T10:18:33;24.30;57.30
39751;DHT22;37579;51.074;17.004;2023-12-20T10:21:00;24.30;57.30
39751;DHT22;37579;51.074;17.004;2023-12-20T10:23:26;24.30;57.10
39751;DHT22;37579;51.074;17.004;2023-12-20T10:25:58;24.30;56.90
39751;DHT22;37579;51.074;17.004;2023-12-20T10:28:25;24.30;56.80
39751;DHT22;37579;51.074;17.004;2023-12-20T10:30:54;24.30;56.70
39751;DHT22;37579;51.074;17.004;2023-12-20T10:33:30;24.30;56.70
39751;DHT22;37579;51.074;17.004;2023-12-20T10:35:57;24.20;56.20
39751;DHT22;37579;51.074;17.004;2023-12-20T10:38:23;24.20;56.30
39751;DHT22;37579;51.074;17.004;2023-12-20T10:40:54;24.20;56.40
39751;DHT22;37579;51.074;17.004;2023-12-20T10:43:23;24.20;56.50
39751;DHT22;37579;51.074;17.004;2023-12-20T10:45:51;24.20;56.70
39751;DHT22;37579;51.074;17.004;2023-12-20T10:48:18;24.20;56.70
39751;DHT22;37579;51.074;17.004;2023-12-20T10:50:44;24.20;56.80
39751;DHT22;37579;51.074;17.004;2023-12-20T10:53:10;24.20;56.80
39751;DHT22;37579;51.074;17.004;2023-12-20T10:55:38;24.20;56.80
39751;DHT22;37579;51.074;17.004;2023-12-20T10:58:07;24.20;56.70
39751;DHT22;37579;51.074;17.004;2023-12-20T11:00:39;24.10;52.60
39751;DHT22;37579;51.074;17.004;2023-12-20T11:03:09;24.20;53.50
39751;DHT22;37579;51.074;17.004;2023-12-20T11:05:49;24.30;53.80
39751;DHT22;37579;51.074;17.004;2023-12-20T11:08:38;24.40;53.70
39751;DHT22;37579;51.074;17.004;2023-12-20T11:11:18;24.40;53.70
39751;DHT22;37579;51.074;17.004;2023-12-20T11:16:24;24.60;53.90
39751;DHT22;37579;51.074;17.004;2023-12-20T11:18:51;24.70;54.00
39751;DHT22;37579;51.074;17.004;2023-12-20T11:21:16;24.80;54.00
39751;DHT22;37579;51.074;17.004;2023-12-20T11:23:42;24.80;54.00
39751;DHT22;37579;51.074;17.004;2023-12-20T11:26:08;24.90;53.90
39751;DHT22;37579;51.074;17.004;2023-12-20T11:28:34;24.90;54.10
39751;DHT22;37579;51.074;17.004;2023-12-20T11:31:01;25.00;54.10
39751;DHT22;37579;51.074;17.004;2023-12-20T11:33:35;24.90;53.30
39751;DHT22;37579;51.074;17.004;2023-12-20T11:36:01;25.00;53.60
39751;DHT22;37579;51.074;17.004;2023-12-20T11:38:39;25.00;52.30
39751;DHT22;37579;51.074;17.004;2023-12-20T11:41:15;25.00;52.50
39751;DHT22;37579;51.074;17.004;2023-12-20T11:43:42;25.00;52.40
39751;DHT22;37579;51.074;17.004;2023-12-20T11:46:09;25.00;51.30
39751;DHT22;37579;51.074;17.004;2023-12-20T11:48:36;25.00;51.10
39751;DHT22;37579;51.074;17.004;2023-12-20T11:51:08;24.90;48.30
39751;DHT22;37579;51.074;17.004;2023-12-20T11:53:34;24.90;48.90
39751;DHT22;37579;51.074;17.004;2023-12-20T11:56:00;24.80;48.20
39751;DHT22;37579;51.074;17.004;2023-12-20T11:58:28;24.90;49.40
39751;DHT22;37579;51.074;17.004;2023-12-20T12:00:55;24.90;49.40
39751;DHT22;37579;51.074;17.004;2023-12-20T12:03:21;24.80;49.50
39751;DHT22;37579;51.074;17.004;2023-12-20T12:05:50;24.80;49.70
39751;DHT22;37579;51.074;17.004;2023-12-20T12:08:17;24.80;50.00
39751;DHT22;37579;51.074;17.004;2023-12-20T12:10:44;24.80;50.40
39751;DHT22;37579;51.074;17.004;2023-12-20T12:13:10;24.80;50.60
39751;DHT22;37579;51.074;17.004;2023-12-20T12:15:37;24.80;50.70
39751;DHT22;37579;51.074;17.004;2023-12-20T12:18:03;24.70;50.00
39751;DHT22;37579;51.074;17.004;2023-12-20T12:20:29;24.70;50.60
39751;DHT22;37579;51.074;17.004;2023-12-20T12:22:59;24.60;50.70
39751;DHT22;37579;51.074;17.004;2023-12-20T12:25:26;24.60;50.90
39751;DHT22;37579;51.074;17.004;2023-12-20T12:27:52;24.60;51.00
39751;DHT22;37579;51.074;17.004;2023-12-20T12:30:18;24.60;51.10
39751;DHT22;37579;51.074;17.004;2023-12-20T12:32:44;24.60;51.30
39751;DHT22;37579;51.074;17.004;2023-12-20T12:35:10;24.60;51.40
39751;DHT22;37579;51.074;17.004;2023-12-20T12:37:40;24.50;51.50
39751;DHT22;37579;51.074;17.004;2023-12-20T12:40:13;24.50;51.70
39751;DHT22;37579;51.074;17.004;2023-12-20T12:42:40;24.50;51.80
39751;DHT22;37579;51.074;17.004;2023-12-20T12:45:07;24.50;51.90
39751;DHT22;37579;51.074;17.004;2023-12-20T12:47:34;24.50;52.00
39751;DHT22;37579;51.074;17.004;2023-12-20T12:50:00;24.50;52.10
39751;DHT22;37579;51.074;17.004;2023-12-20T12:52:26;24.50;52.30
39751;DHT22;37579;51.074;17.004;2023-12-20T12:54:52;24.50;52.40
39751;DHT22;37579;51.074;17.004;2023-12-20T12:57:19;24.50;52.60
39751;DHT22;37579;51.074;17.004;2023-12-20T12:59:45;24.50;52.70
39751;DHT22;37579;51.074;17.004;2023-12-20T13:02:15;24.50;52.70
39751;DHT22;37579;51.074;17.004;2023-12-20T13:04:43;24.40;52.80
39751;DHT22;37579;51.074;17.004;2023-12-20T13:07:09;24.40;53.10
39751;DHT22;37579;51.074;17.004;2023-12-20T13:09:39;24.40;53.30
39751;DHT22;37579;51.074;17.004;2023-12-20T13:12:06;24.40;53.60
39751;DHT22;37579;51.074;17.004;2023-12-20T13:14:33;24.40;54.00
39751;DHT22;37579;51.074;17.004;2023-12-20T13:17:03;24.40;54.50
39751;DHT22;37579;51.074;17.004;2023-12-20T13:19:29;24.30;54.90
39751;DHT22;37579;51.074;17.004;2023-12-20T13:21:56;24.30;55.70
39751;DHT22;37579;51.074;17.004;2023-12-20T13:24:21;24.30;56.90
39751;DHT22;37579;51.074;17.004;2023-12-20T13:26:47;24.40;57.40
39751;DHT22;37579;51.074;17.004;2023-12-20T13:29:13;24.40;57.60
39751;DHT22;37579;51.074;17.004;2023-12-20T13:31:39;24.30;57.60
39751;DHT22;37579;51.074;17.004;2023-12-20T13:34:06;24.40;55.80
39751;DHT22;37579;51.074;17.004;2023-12-20T13:36:32;24.40;55.00
39751;DHT22;37579;51.074;17.004;2023-12-20T13:38:57;24.40;54.80
39751;DHT22;37579;51.074;17.004;2023-12-20T13:41:23;24.40;54.90
39751;DHT22;37579;51.074;17.004;2023-12-20T13:43:49;24.50;54.90
39751;DHT22;37579;51.074;17.004;2023-12-20T13:46:15;24.50;54.80
39751;DHT22;37579;51.074;17.004;2023-12-20T13:48:40;24.50;54.70
39751;DHT22;37579;51.074;17.004;2023-12-20T13:51:07;24.50;54.70
39751;DHT22;37579;51.074;17.004;2023-12-20T13:53:33;24.50;54.60
39751;DHT22;37579;51.074;17.004;2023-12-20T13:55:59;24.60;54.70
39751;DHT22;37579;51.074;17.004;2023-12-20T13:58:25;24.60;54.70
39751;DHT22;37579;51.074;17.004;2023-12-20T14:00:51;24.60;54.80
39751;DHT22;37579;51.074;17.004;2023-12-20T14:03:17;24.60;54.80
39751;DHT22;37579;51.074;17.004;2023-12-20T14:05:43;24.50;54.80
39751;DHT22;37579;51.074;17.004;2023-12-20T14:08:09;24.50;55.00
39751;DHT22;37579;51.074;17.004;2023-12-20T14:10:35;24.50;55.00
39751;DHT22;37579;51.074;17.004;2023-12-20T14:13:01;24.50;54.80
39751;DHT22;37579;51.074;17.004;2023-12-20T14:15:27;24.50;55.10
39751;DHT22;37579;51.074;17.004;2023-12-20T14:17:52;24.50;55.30
39751;DHT22;37579;51.074;17.004;2023-12-20T14:20:18;24.50;55.70
39751;DHT22;37579;51.074;17.004;2023-12-20T14:22:44;24.50;55.60
39751;DHT22;37579;51.074;17.004;2023-12-20T14:25:14;24.50;56.00
39751;DHT22;37579;51.074;17.004;2023-12-20T14:27:40;24.40;56.00
39751;DHT22;37579;51.074;17.004;2023-12-20T14:30:09;24.40;56.10
39751;DHT22;37579;51.074;17.004;2023-12-20T14:32:35;24.40;56.20
39751;DHT22;37579;51.074;17.004;2023-12-20T14:35:05;24.50;56.10
39751;DHT22;37579;51.074;17.004;2023-12-20T14:37:32;24.50;56.00
39751;DHT22;37579;51.074;17.004;2023-12-20T14:39:57;24.40;54.90
39751;DHT22;37579;51.074;17.004;2023-12-20T14:42:23;24.40;54.50
39751;DHT22;37579;51.074;17.004;2023-12-20T14:44:49;24.40;55.20
39751;DHT22;37579;51.074;17.004;2023-12-20T14:47:17;24.40;55.30
39751;DHT22;37579;51.074;17.004;2023-12-20T14:49:43;24.40;55.40
39751;DHT22;37579;51.074;17.004;2023-12-20T14:52:09;24.40;55.50
39751;DHT22;37579;51.074;17.004;2023-12-20T14:54:38;24.40;55.50
39751;DHT22;37579;51.074;17.004;2023-12-20T14:57:04;24.40;55.50
39751;DHT22;37579;51.074;17.004;2023-12-20T14:59:30;24.30;55.70
39751;DHT22;37579;51.074;17.004;2023-12-20T15:01:56;24.30;55.70
39751;DHT22;37579;51.074;17.004;2023-12-20T15:04:21;24.30;55.70
39751;DHT22;37579;51.074;17.004;2023-12-20T15:06:56;24.30;55.70
39751;DHT22;37579;51.074;17.004;2023-12-20T15:09:22;24.30;55.60
39751;DHT22;37579;51.074;17.004;2023-12-20T15:11:48;24.30;55.70
39751;DHT22;37579;51.074;17.004;2023-12-20T15:14:14;24.40;55.70